sensor_id;sensor_type;location;lat;lon;timestamp;temperature;humidity
11704;DHT22;5908;51.354;7.458;2023-04-03T00:00:38;0.90;99.90
11704;DHT22;5908;51.354;7.458;2023-04-03T00:03:04;0.80;99.90
11704;DHT22;5908;51.354;7.458;2023-04-03T00:05:31;0.80;99.90
11704;DHT22;5908;51.354;7.458;2023-04-03T00:08:00;0.80;99.90
11704;DHT22;5908;51.354;7.458;2023-04-03T00:10:27;0.80;99.90
11704;DHT22;5908;51.354;7.458;2023-04-03T00:12:54;0.80;99.90
11704;DHT22;5908;51.354;7.458;2023-04-03T00:15:21;0.80;99.90
11704;DHT22;5908;51.354;7.458;2023-04-03T00:17:48;0.80;99.90
11704;DHT22;5908;51.354;7.458;2023-04-03T00:20:15;0.80;99.90
11704;DHT22;5908;51.354;7.458;2023-04-03T00:22:41;0.80;99.90
11704;DHT22;5908;51.354;7.458;2023-04-03T00:25:10;0.80;99.90
11704;DHT22;5908;51.354;7.458;2023-04-03T00:27:37;0.70;99.90
11704;DHT22;5908;51.354;7.458;2023-04-03T00:30:06;0.70;99.90
11704;DHT22;5908;51.354;7.458;2023-04-03T00:32:33;0.70;99.90
11704;DHT22;5908;51.354;7.458;2023-04-03T00:35:00;0.60;99.90
11704;DHT22;5908;51.354;7.458;2023-04-03T00:37:26;0.60;99.90
11704;DHT22;5908;51.354;7.458;2023-04-03T00:39:53;0.60;99.90
11704;DHT22;5908;51.354;7.458;2023-04-03T00:42:21;0.60;99.90
11704;DHT22;5908;51.354;7.458;2023-04-03T00:48:10;0.50;99.90
11704;DHT22;5908;51.354;7.458;2023-04-03T00:50:41;0.50;99.90
11704;DHT22;5908;51.354;7.458;2023-04-03T00:53:12;0.50;99.90
11704;DHT22;5908;51.354;7.458;2023-04-03T00:55:40;0.50;99.90
11704;DHT22;5908;51.354;7.458;2023-04-03T00:58:09;0.40;99.90
11704;DHT22;5908;51.354;7.458;2023-04-03T01:00:38;0.40;99.90
11704;DHT22;5908;51.354;7.458;2023-04-03T01:03:06;0.40;99.90
11704;DHT22;5908;51.354;7.458;2023-04-03T01:05:33;0.30;99.90
11704;DHT22;5908;51.354;7.458;2023-04-03T01:08:00;0.30;99.90
11704;DHT22;5908;51.354;7.458;2023-04-03T01:10:27;0.30;99.90
11704;DHT22;5908;51.354;7.458;2023-04-03T01:12:54;0.30;99.90
11704;DHT22;5908;51.354;7.458;2023-04-03T01:15:25;0.30;99.90
11704;DHT22;5908;51.354;7.458;2023-04-03T01:17:56;0.20;99.90
11704;DHT22;5908;51.354;7.458;2023-04-03T01:23:42;0.20;99.90
11704;DHT22;5908;51.354;7.458;2023-04-03T01:26:12;0.20;99.90
11704;DHT22;5908;51.354;7.458;2023-04-03T01:28:39;0.20;99.90
11704;DHT22;5908;51.354;7.458;2023-04-03T01:31:14;0.20;99.90
11704;DHT22;5908;51.354;7.458;2023-04-03T01:33:43;0.20;99.90
11704;DHT22;5908;51.354;7.458;2023-04-03T01:36:14;0.20;99.90
11704;DHT22;5908;51.354;7.458;2023-04-03T01:38:41;0.20;99.90
11704;DHT22;5908;51.354;7.458;2023-04-03T01:41:08;0.20;99.90
11704;DHT22;5908;51.354;7.458;2023-04-03T01:43:35;0.20;99.90
11704;DHT22;5908;51.354;7.458;2023-04-03T01:46:02;0.10;99.90
11704;DHT22;5908;51.354;7.458;2023-04-03T01:48:29;0.10;99.90
11704;DHT22;5908;51.354;7.458;2023-04-03T01:50:57;0.10;99.90
11704;DHT22;5908;51.354;7.458;2023-04-03T01:53:24;0.00;99.90
11704;DHT22;5908;51.354;7.458;2023-04-03T01:55:50;0.00;99.90
11704;DHT22;5908;51.354;7.458;2023-04-03T01:58:17;0.00;99.90
11704;DHT22;5908;51.354;7.458;2023-04-03T02:00:44;0.00;99.90
11704;DHT22;5908;51.354;7.458;2023-04-03T02:03:11;0.00;99.90
11704;DHT22;5908;51.354;7.458;2023-04-03T02:05:38;0.00;99.90
11704;DHT22;5908;51.354;7.458;2023-04-03T02:08:06;-0.10;99.90
11704;DHT22;5908;51.354;7.458;2023-04-03T02:10:33;-0.10;99.90
11704;DHT22;5908;51.354;7.458;2023-04-03T02:13:00;-0.10;99.90
11704;DHT22;5908;51.354;7.458;2023-04-03T02:15:26;-0.10;99.90
11704;DHT22;5908;51.354;7.458;2023-04-03T02:17:53;-0.10;99.90
11704;DHT22;5908;51.354;7.458;2023-04-03T02:20:20;-0.20;99.90
11704;DHT22;5908;51.354;7.458;2023-04-03T02:22:47;-0.20;99.90
11704;DHT22;5908;51.354;7.458;2023-04-03T02:25:15;-0.20;99.90
11704;DHT22;5908;51.354;7.458;2023-04-03T02:27:43;-0.20;99.90
11704;DHT22;5908;51.354;7.458;2023-04-03T02:30:10;-0.10;99.90
11704;DHT22;5908;51.354;7.458;2023-04-03T02:32:37;-0.20;99.90
11704;DHT22;5908;51.354;7.458;2023-04-03T02:35:04;-0.20;99.90
11704;DHT22;5908;51.354;7.458;2023-04-03T02:37:31;-0.20;99.90
11704;DHT22;5908;51.354;7.458;2023-04-03T02:39:58;-0.30;99.90
11704;DHT22;5908;51.354;7.458;2023-04-03T02:42:26;-0.30;99.90
11704;DHT22;5908;51.354;7.458;2023-04-03T02:44:53;-0.30;99.90
11704;DHT22;5908;51.354;7.458;2023-04-03T02:47:19;-0.20;99.90
11704;DHT22;5908;51.354;7.458;2023-04-03T02:49:46;-0.30;99.90
11704;DHT22;5908;51.354;7.458;2023-04-03T02:52:13;-0.30;99.90
11704;DHT22;5908;51.354;7.458;2023-04-03T02:54:40;-0.30;99.90
11704;DHT22;5908;51.354;7.458;2023-04-03T02:57:07;-0.30;99.90
11704;DHT22;5908;51.354;7.458;2023-04-03T02:59:35;-0.30;99.90
11704;DHT22;5908;51.354;7.458;2023-04-03T03:02:02;-0.30;99.90
11704;DHT22;5908;51.354;7.458;2023-04-03T03:04:29;-0.30;99.90
11704;DHT22;5908;51.354;7.458;2023-04-03T03:06:55;-0.30;99.90
11704;DHT22;5908;51.354;7.458;2023-04-03T03:09:22;-0.30;99.90
11704;DHT22;5908;51.354;7.458;2023-04-03T03:11:50;-0.40;99.90
11704;DHT22;5908;51.354;7.458;2023-04-03T03:14:17;-0.40;99.90
11704;DHT22;5908;51.354;7.458;2023-04-03T03:16:45;-0.40;99.90
11704;DHT22;5908;51.354;7.458;2023-04-03T03:19:11;-0.40;99.90
11704;DHT22;5908;51.354;7.458;2023-04-03T03:21:38;-0.40;99.90
11704;DHT22;5908;51.354;7.458;2023-04-03T03:24:05;-0.50;99.90
11704;DHT22;5908;51.354;7.458;2023-04-03T03:26:32;-0.50;99.90
11704;DHT22;5908;51.354;7.458;2023-04-03T03:28:59;-0.50;99.90
11704;DHT22;5908;51.354;7.458;2023-04-03T03:31:26;-0.50;99.90
11704;DHT22;5908;51.354;7.458;2023-04-03T03:33:54;-0.50;99.90
11704;DHT22;5908;51.354;7.458;2023-04-03T03:36:20;-0.50;99.90
11704;DHT22;5908;51.354;7.458;2023-04-03T03:38:47;-0.60;99.90
11704;DHT22;5908;51.354;7.458;2023-04-03T03:41:14;-0.60;99.90
11704;DHT22;5908;51.354;7.458;2023-04-03T03:43:41;-0.60;99.90
11704;DHT22;5908;51.354;7.458;2023-04-03T03:46:07;-0.60;99.90
11704;DHT22;5908;51.354;7.458;2023-04-03T03:48:34;-0.60;99.90
11704;DHT22;5908;51.354;7.458;2023-04-03T03:51:02;-0.60;99.90
11704;DHT22;5908;51.354;7.458;2023-04-03T03:53:29;-0.70;99.90
11704;DHT22;5908;51.354;7.458;2023-04-03T03:55:56;-0.70;99.90
11704;DHT22;5908;51.354;7.458;2023-04-03T03:58:22;-0.70;99.90
11704;DHT22;5908;51.354;7.458;2023-04-03T04:00:49;-0.70;99.90
11704;DHT22;5908;51.354;7.458;2023-04-03T04:03:16;-0.70;99.90
11704;DHT22;5908;51.354;7.458;2023-04-03T04:05:43;-0.70;99.90
11704;DHT22;5908;51.354;7.458;2023-04-03T04:08:11;-0.70;99.90
11704;DHT22;5908;51.354;7.458;2023-04-03T04:10:38;-0.70;99.90
11704;DHT22;5908;51.354;7.458;2023-04-03T04:13:05;-0.70;99.90
11704;DHT22;5908;51.354;7.458;2023-04-03T04:15:32;-0.70;99.90
11704;DHT22;5908;51.354;7.458;2023-04-03T04:17:59;-0.80;99.90
11704;DHT22;5908;51.354;7.458;2023-04-03T04:20:25;-0.70;99.90
11704;DHT22;5908;51.354;7.458;2023-04-03T04:22:52;-0.80;99.90
11704;DHT22;5908;51.354;7.458;2023-04-03T04:25:20;-0.80;99.90
11704;DHT22;5908;51.354;7.458;2023-04-03T04:27:47;-0.80;99.90
11704;DHT22;5908;51.354;7.458;2023-04-03T04:30:14;-0.80;99.90
11704;DHT22;5908;51.354;7.458;2023-04-03T04:32:40;-0.80;99.90
11704;DHT22;5908;51.354;7.458;2023-04-03T04:35:08;-0.80;99.90
11704;DHT22;5908;51.354;7.458;2023-04-03T04:37:35;-0.80;99.90
11704;DHT22;5908;51.354;7.458;2023-04-03T04:40:02;-0.90;99.90
11704;DHT22;5908;51.354;7.458;2023-04-03T04:42:30;-0.90;99.90
11704;DHT22;5908;51.354;7.458;2023-04-03T04:44:56;-0.90;99.90
11704;DHT22;5908;51.354;7.458;2023-04-03T04:47:23;-0.90;99.90
11704;DHT22;5908;51.354;7.458;2023-04-03T04:49:50;-1.00;99.90
11704;DHT22;5908;51.354;7.458;2023-04-03T04:52:17;-1.00;99.90
11704;DHT22;5908;51.354;7.458;2023-04-03T04:54:44;-0.90;99.90
11704;DHT22;5908;51.354;7.458;2023-04-03T04:57:11;-1.00;99.90
11704;DHT22;5908;51.354;7.458;2023-04-03T04:59:39;-0.90;99.90
11704;DHT22;5908;51.354;7.458;2023-04-03T05:02:06;-1.00;99.90
11704;DHT22;5908;51.354;7.458;2023-04-03T05:04:33;-1.00;99.90
11704;DHT22;5908;51.354;7.458;2023-04-03T05:07:00;-0.90;99.90
11704;DHT22;5908;51.354;7.458;2023-04-03T05:09:26;-0.90;99.90
11704;DHT22;5908;51.354;7.458;2023-04-03T05:11:53;-0.90;99.90
11704;DHT22;5908;51.354;7.458;2023-04-03T05:14:20;-0.80;99.90
11704;DHT22;5908;51.354;7.458;2023-04-03T05:16:48;-0.80;99.90
11704;DHT22;5908;51.354;7.458;2023-04-03T05:19:18;-0.80;99.90
11704;DHT22;5908;51.354;7.458;2023-04-03T05:21:44;-0.80;99.90
11704;DHT22;5908;51.354;7.458;2023-04-03T05:24:11;-0.70;99.90
11704;DHT22;5908;51.354;7.458;2023-04-03T05:26:38;-0.70;99.90
11704;DHT22;5908;51.354;7.458;2023-04-03T05:29:05;-0.70;99.90
11704;DHT22;5908;51.354;7.458;2023-04-03T05:31:31;-0.60;99.90
11704;DHT22;5908;51.354;7.458;2023-04-03T05:33:59;-0.60;99.90
11704;DHT22;5908;51.354;7.458;2023-04-03T05:36:26;-0.50;99.90
11704;DHT22;5908;51.354;7.458;2023-04-03T05:38:53;-0.50;99.90
11704;DHT22;5908;51.354;7.458;2023-04-03T05:41:21;-0.40;99.90
11704;DHT22;5908;51.354;7.458;2023-04-03T05:43:48;-0.40;99.90
11704;DHT22;5908;51.354;7.458;2023-04-03T05:46:17;-0.30;99.90
11704;DHT22;5908;51.354;7.458;2023-04-03T05:48:44;-0.30;99.90
11704;DHT22;5908;51.354;7.458;2023-04-03T05:51:16;-0.20;99.90
11704;DHT22;5908;51.354;7.458;2023-04-03T05:53:43;-0.10;99.90
11704;DHT22;5908;51.354;7.458;2023-04-03T05:56:11;0.00;99.90
11704;DHT22;5908;51.354;7.458;2023-04-03T05:58:38;0.10;99.90
11704;DHT22;5908;51.354;7.458;2023-04-03T06:01:05;0.20;99.90
11704;DHT22;5908;51.354;7.458;2023-04-03T06:03:33;0.20;99.90
11704;DHT22;5908;51.354;7.458;2023-04-03T06:06:02;0.20;99.90
11704;DHT22;5908;51.354;7.458;2023-04-03T06:08:31;0.30;99.90
11704;DHT22;5908;51.354;7.458;2023-04-03T06:10:58;0.40;99.90
11704;DHT22;5908;51.354;7.458;2023-04-03T06:13:25;0.60;99.90
11704;DHT22;5908;51.354;7.458;2023-04-03T06:15:51;0.80;99.90
11704;DHT22;5908;51.354;7.458;2023-04-03T06:18:18;0.90;99.90
11704;DHT22;5908;51.354;7.458;2023-04-03T06:20:45;1.00;99.90
11704;DHT22;5908;51.354;7.458;2023-04-03T06:23:12;1.10;99.90
11704;DHT22;5908;51.354;7.458;2023-04-03T06:25:40;1.10;99.90
11704;DHT22;5908;51.354;7.458;2023-04-03T06:28:08;1.20;99.90
11704;DHT22;5908;51.354;7.458;2023-04-03T06:30:35;1.20;99.90
11704;DHT22;5908;51.354;7.458;2023-04-03T06:33:02;1.20;99.90
11704;DHT22;5908;51.354;7.458;2023-04-03T06:35:29;1.30;99.90
11704;DHT22;5908;51.354;7.458;2023-04-03T06:37:56;1.40;99.90
11704;DHT22;5908;51.354;7.458;2023-04-03T06:40:24;1.30;99.90
11704;DHT22;5908;51.354;7.458;2023-04-03T06:42:52;1.40;99.90
11704;DHT22;5908;51.354;7.458;2023-04-03T06:45:20;1.50;99.90
11704;DHT22;5908;51.354;7.458;2023-04-03T06:47:47;1.40;99.90
11704;DHT22;5908;51.354;7.458;2023-04-03T06:50:13;1.50;99.90
11704;DHT22;5908;51.354;7.458;2023-04-03T06:52:41;1.70;99.90
11704;DHT22;5908;51.354;7.458;2023-04-03T06:55:08;1.60;99.90
11704;DHT22;5908;51.354;7.458;2023-04-03T06:57:35;1.60;99.90
11704;DHT22;5908;51.354;7.458;2023-04-03T07:00:05;1.70;99.90
11704;DHT22;5908;51.354;7.458;2023-04-03T07:02:32;1.90;99.90
11704;DHT22;5908;51.354;7.458;2023-04-03T07:04:59;1.90;99.90
11704;DHT22;5908;51.354;7.458;2023-04-03T07:07:25;1.90;99.90
11704;DHT22;5908;51.354;7.458;2023-04-03T07:09:52;2.00;99.90
11704;DHT22;5908;51.354;7.458;2023-04-03T07:12:19;2.10;99.90
11704;DHT22;5908;51.354;7.458;2023-04-03T07:14:46;2.00;99.90
11704;DHT22;5908;51.354;7.458;2023-04-03T07:17:14;2.10;99.90
11704;DHT22;5908;51.354;7.458;2023-04-03T07:19:40;2.10;99.90
11704;DHT22;5908;51.354;7.458;2023-04-03T07:22:07;2.20;99.90
11704;DHT22;5908;51.354;7.458;2023-04-03T07:24:36;2.30;99.90
11704;DHT22;5908;51.354;7.458;2023-04-03T07:27:03;2.40;99.90
11704;DHT22;5908;51.354;7.458;2023-04-03T07:29:30;2.60;99.90
11704;DHT22;5908;51.354;7.458;2023-04-03T07:31:57;2.60;99.90
11704;DHT22;5908;51.354;7.458;2023-04-03T07:34:25;2.70;99.90
11704;DHT22;5908;51.354;7.458;2023-04-03T07:36:51;2.80;99.90
11704;DHT22;5908;51.354;7.458;2023-04-03T07:39:18;2.80;99.90
11704;DHT22;5908;51.354;7.458;2023-04-03T07:41:45;2.80;99.90
11704;DHT22;5908;51.354;7.458;2023-04-03T07:44:12;2.90;99.90
11704;DHT22;5908;51.354;7.458;2023-04-03T07:46:38;3.00;99.90
11704;DHT22;5908;51.354;7.458;2023-04-03T07:49:06;3.10;99.90
11704;DHT22;5908;51.354;7.458;2023-04-03T07:51:34;3.10;99.90
11704;DHT22;5908;51.354;7.458;2023-04-03T07:54:01;3.10;99.90
11704;DHT22;5908;51.354;7.458;2023-04-03T07:56:28;3.20;99.90
11704;DHT22;5908;51.354;7.458;2023-04-03T07:58:54;3.30;99.90
11704;DHT22;5908;51.354;7.458;2023-04-03T08:01:21;3.30;99.90
11704;DHT22;5908;51.354;7.458;2023-04-03T08:03:48;3.20;99.90
11704;DHT22;5908;51.354;7.458;2023-04-03T08:06:14;3.40;99.90
11704;DHT22;5908;51.354;7.458;2023-04-03T08:08:43;3.50;99.90
11704;DHT22;5908;51.354;7.458;2023-04-03T08:11:10;3.50;99.90
11704;DHT22;5908;51.354;7.458;2023-04-03T08:13:37;3.60;99.90
11704;DHT22;5908;51.354;7.458;2023-04-03T08:16:09;3.60;99.90
11704;DHT22;5908;51.354;7.458;2023-04-03T08:18:36;3.70;99.90
11704;DHT22;5908;51.354;7.458;2023-04-03T08:21:06;3.70;99.90
11704;DHT22;5908;51.354;7.458;2023-04-03T08:23:33;3.70;99.90
11704;DHT22;5908;51.354;7.458;2023-04-03T08:26:07;3.80;99.90
11704;DHT22;5908;51.354;7.458;2023-04-03T08:28:33;3.80;99.90
11704;DHT22;5908;51.354;7.458;2023-04-03T08:31:03;3.90;99.90
11704;DHT22;5908;51.354;7.458;2023-04-03T08:33:31;3.80;99.90
11704;DHT22;5908;51.354;7.458;2023-04-03T08:35:58;4.00;99.90
11704;DHT22;5908;51.354;7.458;2023-04-03T08:38:25;4.10;99.90
11704;DHT22;5908;51.354;7.458;2023-04-03T08:41:01;4.10;99.90
11704;DHT22;5908;51.354;7.458;2023-04-03T08:43:36;4.10;99.90
11704;DHT22;5908;51.354;7.458;2023-04-03T08:46:11;4.30;99.90
11704;DHT22;5908;51.354;7.458;2023-04-03T08:48:41;4.40;99.90
11704;DHT22;5908;51.354;7.458;2023-04-03T08:51:12;4.40;99.90
11704;DHT22;5908;51.354;7.458;2023-04-03T08:53:43;4.50;99.90
11704;DHT22;5908;51.354;7.458;2023-04-03T08:56:11;4.50;99.90
11704;DHT22;5908;51.354;7.458;2023-04-03T08:58:46;4.50;99.90
11704;DHT22;5908;51.354;7.458;2023-04-03T09:01:19;4.50;99.90
11704;DHT22;5908;51.354;7.458;2023-04-03T09:03:46;4.60;99.90
11704;DHT22;5908;51.354;7.458;2023-04-03T09:06:15;4.60;99.90
11704;DHT22;5908;51.354;7.458;2023-04-03T09:08:48;4.70;99.90
11704;DHT22;5908;51.354;7.458;2023-04-03T09:11:21;4.80;99.90
11704;DHT22;5908;51.354;7.458;2023-04-03T09:13:54;4.80;99.90
11704;DHT22;5908;51.354;7.458;2023-04-03T09:16:33;5.00;99.90
11704;DHT22;5908;51.354;7.458;2023-04-03T09:19:07;5.00;99.90
11704;DHT22;5908;51.354;7.458;2023-04-03T09:21:39;4.90;99.90
11704;DHT22;5908;51.354;7.458;2023-04-03T09:24:09;5.00;99.90
11704;DHT22;5908;51.354;7.458;2023-04-03T09:26:42;5.20;99.90
11704;DHT22;5908;51.354;7.458;2023-04-03T09:29:15;5.20;99.90
11704;DHT22;5908;51.354;7.458;2023-04-03T09:31:44;5.30;99.90
11704;DHT22;5908;51.354;7.458;2023-04-03T09:34:17;5.30;99.90
11704;DHT22;5908;51.354;7.458;2023-04-03T09:36:48;5.40;99.00
11704;DHT22;5908;51.354;7.458;2023-04-03T09:39:17;5.50;98.20
11704;DHT22;5908;51.354;7.458;2023-04-03T09:41:57;5.50;98.60
11704;DHT22;5908;51.354;7.458;2023-04-03T09:44:28;5.70;95.10
11704;DHT22;5908;51.354;7.458;2023-04-03T09:46:55;5.60;92.50
11704;DHT22;5908;51.354;7.458;2023-04-03T09:49:22;5.70;91.90
11704;DHT22;5908;51.354;7.458;2023-04-03T09:51:49;5.90;90.30
11704;DHT22;5908;51.354;7.458;2023-04-03T09:54:32;6.10;84.00
11704;DHT22;5908;51.354;7.458;2023-04-03T09:57:02;6.20;82.30
11704;DHT22;5908;51.354;7.458;2023-04-03T09:59:32;6.20;82.50
11704;DHT22;5908;51.354;7.458;2023-04-03T10:02:00;6.30;78.60
11704;DHT22;5908;51.354;7.458;2023-04-03T10:04:38;6.50;75.10
11704;DHT22;5908;51.354;7.458;2023-04-03T10:07:28;6.50;74.60
11704;DHT22;5908;51.354;7.458;2023-04-03T10:09:56;6.40;75.60
11704;DHT22;5908;51.354;7.458;2023-04-03T10:12:24;6.70;73.70
11704;DHT22;5908;51.354;7.458;2023-04-03T10:14:57;6.70;73.00
11704;DHT22;5908;51.354;7.458;2023-04-03T10:17:32;6.70;72.80
11704;DHT22;5908;51.354;7.458;2023-04-03T10:20:06;6.70;72.10
11704;DHT22;5908;51.354;7.458;2023-04-03T10:22:41;6.70;72.30
11704;DHT22;5908;51.354;7.458;2023-04-03T10:25:20;6.70;73.80
11704;DHT22;5908;51.354;7.458;2023-04-03T10:27:53;6.70;74.90
11704;DHT22;5908;51.354;7.458;2023-04-03T10:30:32;6.70;75.80
11704;DHT22;5908;51.354;7.458;2023-04-03T10:33:28;6.80;74.60
11704;DHT22;5908;51.354;7.458;2023-04-03T10:36:10;6.80;74.20
11704;DHT22;5908;51.354;7.458;2023-04-03T10:38:45;6.90;74.00
11704;DHT22;5908;51.354;7.458;2023-04-03T10:41:20;6.80;77.10
11704;DHT22;5908;51.354;7.458;2023-04-03T10:43:57;6.80;77.80
11704;DHT22;5908;51.354;7.458;2023-04-03T10:46:29;7.20;73.90
11704;DHT22;5908;51.354;7.458;2023-04-03T10:49:10;7.20;72.90
11704;DHT22;5908;51.354;7.458;2023-04-03T10:51:42;7.30;71.30
11704;DHT22;5908;51.354;7.458;2023-04-03T10:54:12;7.30;70.00
11704;DHT22;5908;51.354;7.458;2023-04-03T10:56:42;7.20;70.30
11704;DHT22;5908;51.354;7.458;2023-04-03T10:59:20;7.30;70.60
11704;DHT22;5908;51.354;7.458;2023-04-03T11:01:53;7.30;70.20
11704;DHT22;5908;51.354;7.458;2023-04-03T11:04:28;7.40;70.30
11704;DHT22;5908;51.354;7.458;2023-04-03T11:07:01;7.40;70.40
11704;DHT22;5908;51.354;7.458;2023-04-03T11:09:31;7.30;70.70
11704;DHT22;5908;51.354;7.458;2023-04-03T11:12:03;7.40;70.30
11704;DHT22;5908;51.354;7.458;2023-04-03T11:14:33;7.30;70.90
11704;DHT22;5908;51.354;7.458;2023-04-03T11:17:09;7.30;72.30
11704;DHT22;5908;51.354;7.458;2023-04-03T11:19:41;7.40;72.70
11704;DHT22;5908;51.354;7.458;2023-04-03T11:22:18;7.60;70.60
11704;DHT22;5908;51.354;7.458;2023-04-03T11:24:58;7.60;68.90
11704;DHT22;5908;51.354;7.458;2023-04-03T11:27:27;7.60;69.80
11704;DHT22;5908;51.354;7.458;2023-04-03T11:29:58;7.60;70.40
11704;DHT22;5908;51.354;7.458;2023-04-03T11:32:49;7.70;68.50
11704;DHT22;5908;51.354;7.458;2023-04-03T11:35:20;7.60;69.10
11704;DHT22;5908;51.354;7.458;2023-04-03T11:37:49;7.60;70.90
11704;DHT22;5908;51.354;7.458;2023-04-03T11:40:22;7.70;69.60
11704;DHT22;5908;51.354;7.458;2023-04-03T11:42:53;7.80;70.30
11704;DHT22;5908;51.354;7.458;2023-04-03T11:45:36;7.80;69.50
11704;DHT22;5908;51.354;7.458;2023-04-03T11:48:41;7.80;69.80
11704;DHT22;5908;51.354;7.458;2023-04-03T11:50:58;7.80;69.60
11704;DHT22;5908;51.354;7.458;2023-04-03T11:53:31;7.70;70.10
11704;DHT22;5908;51.354;7.458;2023-04-03T11:56:04;7.80;70.60
11704;DHT22;5908;51.354;7.458;2023-04-03T11:59:19;7.90;71.70
11704;DHT22;5908;51.354;7.458;2023-04-03T12:01:49;8.00;72.40
11704;DHT22;5908;51.354;7.458;2023-04-03T12:04:19;8.00;71.30
11704;DHT22;5908;51.354;7.458;2023-04-03T12:07:01;8.00;71.40
11704;DHT22;5908;51.354;7.458;2023-04-03T12:12:33;8.30;71.90
11704;DHT22;5908;51.354;7.458;2023-04-03T12:15:18;8.30;69.40
11704;DHT22;5908;51.354;7.458;2023-04-03T12:17:46;8.10;69.80
11704;DHT22;5908;51.354;7.458;2023-04-03T12:23:26;8.00;72.00
11704;DHT22;5908;51.354;7.458;2023-04-03T12:26:00;8.20;72.30
11704;DHT22;5908;51.354;7.458;2023-04-03T12:28:35;8.20;72.00
11704;DHT22;5908;51.354;7.458;2023-04-03T12:31:04;8.20;72.00
11704;DHT22;5908;51.354;7.458;2023-04-03T12:33:56;8.20;71.20
11704;DHT22;5908;51.354;7.458;2023-04-03T12:36:30;8.20;71.00
11704;DHT22;5908;51.354;7.458;2023-04-03T12:39:41;8.10;71.00
11704;DHT22;5908;51.354;7.458;2023-04-03T12:45:16;8.10;72.80
11704;DHT22;5908;51.354;7.458;2023-04-03T12:47:45;8.30;72.30
11704;DHT22;5908;51.354;7.458;2023-04-03T12:50:21;8.20;72.20
11704;DHT22;5908;51.354;7.458;2023-04-03T12:52:54;8.30;71.30
11704;DHT22;5908;51.354;7.458;2023-04-03T12:55:24;8.30;71.10
11704;DHT22;5908;51.354;7.458;2023-04-03T12:57:52;8.30;71.70
11704;DHT22;5908;51.354;7.458;2023-04-03T13:03:21;8.30;72.00
11704;DHT22;5908;51.354;7.458;2023-04-03T13:05:48;8.50;71.80
11704;DHT22;5908;51.354;7.458;2023-04-03T13:08:17;8.50;71.80
11704;DHT22;5908;51.354;7.458;2023-04-03T13:10:53;8.50;71.00
11704;DHT22;5908;51.354;7.458;2023-04-03T13:13:21;8.40;70.40
11704;DHT22;5908;51.354;7.458;2023-04-03T13:15:49;8.30;71.20
11704;DHT22;5908;51.354;7.458;2023-04-03T13:18:25;8.40;71.50
11704;DHT22;5908;51.354;7.458;2023-04-03T13:20:52;8.30;72.10
11704;DHT22;5908;51.354;7.458;2023-04-03T13:23:20;8.40;73.40
11704;DHT22;5908;51.354;7.458;2023-04-03T13:25:50;8.40;72.70
11704;DHT22;5908;51.354;7.458;2023-04-03T13:28:19;8.40;73.10
11704;DHT22;5908;51.354;7.458;2023-04-03T13:30:56;8.40;73.40
11704;DHT22;5908;51.354;7.458;2023-04-03T13:33:28;8.40;74.00
11704;DHT22;5908;51.354;7.458;2023-04-03T13:35:58;8.50;73.00
11704;DHT22;5908;51.354;7.458;2023-04-03T13:38:28;8.60;72.10
11704;DHT22;5908;51.354;7.458;2023-04-03T13:40:59;8.60;72.90
11704;DHT22;5908;51.354;7.458;2023-04-03T13:43:30;8.60;72.20
11704;DHT22;5908;51.354;7.458;2023-04-03T13:46:02;8.50;73.10
11704;DHT22;5908;51.354;7.458;2023-04-03T13:48:36;8.60;72.70
11704;DHT22;5908;51.354;7.458;2023-04-03T13:51:05;8.60;73.50
11704;DHT22;5908;51.354;7.458;2023-04-03T13:53:40;8.60;73.70
11704;DHT22;5908;51.354;7.458;2023-04-03T13:56:16;8.60;73.60
11704;DHT22;5908;51.354;7.458;2023-04-03T13:58:57;8.50;73.70
11704;DHT22;5908;51.354;7.458;2023-04-03T14:01:26;8.50;74.20
11704;DHT22;5908;51.354;7.458;2023-04-03T14:04:01;8.50;74.60
11704;DHT22;5908;51.354;7.458;2023-04-03T14:06:29;8.60;74.90
11704;DHT22;5908;51.354;7.458;2023-04-03T14:08:56;8.60;73.20
11704;DHT22;5908;51.354;7.458;2023-04-03T14:11:26;8.50;73.80
11704;DHT22;5908;51.354;7.458;2023-04-03T14:13:56;8.60;74.00
11704;DHT22;5908;51.354;7.458;2023-04-03T14:16:27;8.70;73.20
11704;DHT22;5908;51.354;7.458;2023-04-03T14:18:55;8.60;74.10
11704;DHT22;5908;51.354;7.458;2023-04-03T14:21:22;8.70;74.40
11704;DHT22;5908;51.354;7.458;2023-04-03T14:23:49;8.60;74.60
11704;DHT22;5908;51.354;7.458;2023-04-03T14:26:19;8.70;73.50
11704;DHT22;5908;51.354;7.458;2023-04-03T14:28:49;8.60;72.80
11704;DHT22;5908;51.354;7.458;2023-04-03T14:31:17;8.60;72.60
11704;DHT22;5908;51.354;7.458;2023-04-03T14:33:45;8.60;73.30
11704;DHT22;5908;51.354;7.458;2023-04-03T14:36:14;8.60;72.80
11704;DHT22;5908;51.354;7.458;2023-04-03T14:38:42;8.60;73.10
11704;DHT22;5908;51.354;7.458;2023-04-03T14:41:12;8.50;73.10
11704;DHT22;5908;51.354;7.458;2023-04-03T14:43:39;8.60;73.50
11704;DHT22;5908;51.354;7.458;2023-04-03T14:46:13;8.50;73.50
11704;DHT22;5908;51.354;7.458;2023-04-03T14:48:40;8.50;74.00
11704;DHT22;5908;51.354;7.458;2023-04-03T14:51:09;8.50;74.60
11704;DHT22;5908;51.354;7.458;2023-04-03T14:53:36;8.50;74.50
11704;DHT22;5908;51.354;7.458;2023-04-03T14:56:09;8.50;74.50
11704;DHT22;5908;51.354;7.458;2023-04-03T14:58:36;8.40;75.10
11704;DHT22;5908;51.354;7.458;2023-04-03T15:01:03;8.50;75.10
11704;DHT22;5908;51.354;7.458;2023-04-03T15:03:31;8.60;74.20
11704;DHT22;5908;51.354;7.458;2023-04-03T15:05:58;8.60;74.30
11704;DHT22;5908;51.354;7.458;2023-04-03T15:08:26;8.50;74.50
11704;DHT22;5908;51.354;7.458;2023-04-03T15:10:55;8.50;74.10
11704;DHT22;5908;51.354;7.458;2023-04-03T15:13:23;8.50;73.70
11704;DHT22;5908;51.354;7.458;2023-04-03T15:15:50;8.40;74.00
11704;DHT22;5908;51.354;7.458;2023-04-03T15:18:20;8.40;74.90
11704;DHT22;5908;51.354;7.458;2023-04-03T15:20:49;8.50;75.10
11704;DHT22;5908;51.354;7.458;2023-04-03T15:23:16;8.60;75.50
11704;DHT22;5908;51.354;7.458;2023-04-03T15:25:44;8.60;75.60
11704;DHT22;5908;51.354;7.458;2023-04-03T15:28:18;8.50;75.70
11704;DHT22;5908;51.354;7.458;2023-04-03T15:30:45;8.60;75.00
11704;DHT22;5908;51.354;7.458;2023-04-03T15:33:12;8.50;75.00
11704;DHT22;5908;51.354;7.458;2023-04-03T15:35:41;8.40;75.60
11704;DHT22;5908;51.354;7.458;2023-04-03T15:38:09;8.50;75.80
11704;DHT22;5908;51.354;7.458;2023-04-03T15:40:36;8.40;76.10
11704;DHT22;5908;51.354;7.458;2023-04-03T15:43:02;8.40;76.00
11704;DHT22;5908;51.354;7.458;2023-04-03T15:45:30;8.40;76.00
11704;DHT22;5908;51.354;7.458;2023-04-03T15:47:57;8.40;75.50
11704;DHT22;5908;51.354;7.458;2023-04-03T15:50:24;8.50;75.50
11704;DHT22;5908;51.354;7.458;2023-04-03T15:52:51;8.50;75.60
11704;DHT22;5908;51.354;7.458;2023-04-03T15:55:21;8.60;75.40
11704;DHT22;5908;51.354;7.458;2023-04-03T15:57:48;8.70;75.70
11704;DHT22;5908;51.354;7.458;2023-04-03T16:00:15;8.70;75.90
11704;DHT22;5908;51.354;7.458;2023-04-03T16:02:43;8.80;75.90
11704;DHT22;5908;51.354;7.458;2023-04-03T16:05:10;8.80;75.50
11704;DHT22;5908;51.354;7.458;2023-04-03T16:07:38;8.80;75.00
11704;DHT22;5908;51.354;7.458;2023-04-03T16:10:06;8.80;74.60
11704;DHT22;5908;51.354;7.458;2023-04-03T16:12:34;8.80;74.80
11704;DHT22;5908;51.354;7.458;2023-04-03T16:15:03;8.90;74.60
11704;DHT22;5908;51.354;7.458;2023-04-03T16:17:31;8.70;73.60
11704;DHT22;5908;51.354;7.458;2023-04-03T16:19:58;8.70;74.20
11704;DHT22;5908;51.354;7.458;2023-04-03T16:22:27;8.80;74.00
11704;DHT22;5908;51.354;7.458;2023-04-03T16:24:55;8.90;73.40
11704;DHT22;5908;51.354;7.458;2023-04-03T16:27:22;8.90;73.00
11704;DHT22;5908;51.354;7.458;2023-04-03T16:29:54;8.90;73.80